Sandia, Texas
Current Conditions -  °F | °C
As of 9:56 PM on Saturday 25 Oct 2014 (Local Time) from KNOG Reporting Station
Clear Clear  
Wind Chill: 70°   Ceiling: Unl
Heat Index: 70°   Visibility: 10mi
Dew Point: 62°   Wind: 5mph
Humidity: 76%   Direction: 180°S
Pressure: 30.12"   Gusts: NA
Location:  28.02°N, 97.88°W
Report Text: KNOG 260256Z AUTO 18004KT 10SM CLR 21/17 A3012 RMK AO2 SLP179 T02110167 51010 $
Loading
Personal Weather Stations






























Interactive Weather Map
Tropical Storm Tracking
New forecast layout! Learn more

10-Day Weather Forecast

Advertisements
Track Severe Weather on mobile